SKPE/PEI METAR and TAF weather

Enter ICAO airport designator
Station Type Date Time Source
SKPE METAR 2020/04/07 17:00 UTC NOAA

SKPE 071700Z 25006KT 9999 SCT014 SCT080 24/22 A3010


Station Type Date Time Source
SKPE Decoded METAR 2020/04/07 17:00 UTC NOAA

Pereira / Matecana, Colombia (SKPE) 04-49N 075-44W 1342M
Apr 07, 2020 - 01:00 PM EDT / 2020.04.07 1700 UTC
Wind: from the WSW (250 degrees) at 7 MPH (6 KT):0
Visibility: greater than 7 mile(s):0
Sky conditions: partly cloudy
Temperature: 75 F (24 C)
Dew Point: 71 F (22 C)
Relative Humidity: 88%
Pressure (altimeter): 30.1 in. Hg (1019 hPa)
ob: SKPE 071700Z 25006KT 9999 SCT014 SCT080 24/22 A3010
cycle: 17

Station Type Date Time Source
SKPE TAF 2020/04/07 18:48 UTC NOAA

TAF SKPE 071630Z 0718/0818 31006KT 9999 SCT017 SCT090 PROB30
TEMPO 0720/0722 8000 VCSH SCT017TCU BEMCG 0723/0801 VRB02KT FEW017 BKN080
TEMPO 0806/0809 8000 VCSH
TEMPO 0810/0813 5000 BCFG TX29/0720Z TN19/0810Z

Example: see airport list